Home > Products > Valid Products > TAF

000
FTUS46 KSEW 211700 RRA
TAFSEA
TAF
KSEA 211746Z 2118/2224 15009KT P6SM -RA BKN035 OVC050
     FM212100 14011KT 4SM RA BR OVC025
     FM220300 21013G23KT P6SM -SHRA SCT018 BKN025 BKN045=



000
FTUS46 KSEW 211700 RRA
TAFBFI
TAF
KBFI 211746Z 2118/2218 14008KT P6SM -RA BKN035 OVC050
     FM212100 15008KT 5SM RA BR OVC030
     FM220300 18011G20KT P6SM -SHRA SCT020 BKN030 OVC050=



000
FTUS46 KSEW 211700 RRA
TAFOLM
TAF
KOLM 211746Z 2118/2218 20008KT 6SM -RA BR SCT025 BKN035 OVC045
     FM212000 18014G22KT 2SM RA BR OVC020
     FM220300 21009G16KT P6SM -SHRA BKN025 OVC040=



000
FTUS46 KSEW 211700 RRA
TAFBLI
TAF
KBLI 211746Z 2118/2218 15018G28KT P6SM -RA OVC025
     FM212200 15016G26KT 4SM RA BR OVC015
     FM220400 16013G20KT P6SM -SHRA BKN025 OVC050
     FM221300 19006KT P6SM VCSH SCT015 BKN020=



000
FTUS46 KSEW 211700 RRA
TAFPAE
TAF
KPAE 211746Z 2118/2218 15015G22KT P6SM -RA SCT030 OVC040
     FM212100 16015G24KT 4SM -RA BR OVC020
     FM220300 18014G21KT P6SM -SHRA OVC025
     FM220600 23007KT 6SM -SHRA BR SCT010 OVC018
     FM221500 20006KT P6SM -SHRA SCT015 OVC025=



000
FTUS46 KSEW 211700 RRA
TAFHQM
TAF
KHQM 211746Z 2118/2218 09015KT 3SM -RA BR OVC015 WS020/19050KT
     FM220000 22008G18KT P6SM -SHRA BKN015 OVC035=



000
FTUS46 KSEW 211700 RRA
TAFCLM
TAF
KCLM 211746Z 2118/2218 VRB03KT 3SM -RA BR BKN003 OVC050
     FM220200 26012KT P6SM -SHRA BKN025 OVC050=



000
FTUS46 KSEW 211400 AAA
TAFBFI
TAF AMD
KBFI 211421Z 2114/2212 13006KT P6SM VCSH OVC050
      TEMPO 2114/2116 -RA
     FM211600 15007KT P6SM -RA OVC040
     FM212000 15008KT 5SM -RA BR OVC030
     FM220400 17011G21KT P6SM -SHRA BKN030 OVC050=



000
FTUS46 KSEW 211400 AAC
TAFCLM
TAF AMD
KCLM 211420Z 2114/2212 VRB03KT 6SM -RA BR SCT005 OVC050
      TEMPO 2114/2117 2SM -RA BR BKN005 OVC050
     FM211700 25003KT 4SM -RA BR SCT008 OVC030
     FM220300 27009KT P6SM -SHRA BKN025 OVC050=



000
FTUS46 KSEW 211400 AAA
TAFOLM
TAF AMD
KOLM 211408Z 2114/2212 20006KT P6SM VCSH OVC040
      TEMPO 2114/2116 -RA
     FM211600 20008KT 4SM -RA BR SCT020 OVC035
     FM211900 20009KT 2SM -RA BR OVC020
     FM220400 21009G16KT P6SM -SHRA BKN025 OVC040
      AMD NOT SKED=



000
FTUS46 KSEW 211400 AAA
TAFSEA
TAF AMD
KSEA 211406Z 2114/2218 15008KT P6SM VCSH SCT035 OVC050
      TEMPO 2114/2116 -RA
     FM211600 16009KT P6SM -RA OVC035
     FM211900 16011KT 4SM -RA BR OVC025
     FM220400 21013G23KT P6SM -SHRA BKN025 OVC045=



000
FTUS46 KSEW 211400 AAA
TAFPAE
TAF AMD
KPAE 211405Z 2114/2212 15013KT P6SM VCSH SCT035 OVC050
      TEMPO 2114/2116 15013G20KT -RA
     FM211600 16015G22KT P6SM -RA OVC035
     FM211900 16015G24KT 4SM -RA BR OVC020
     FM220400 18014G21KT P6SM -SHRA OVC025=



000
FTUS46 KSEW 211400 AAB
TAFCLM
TAF AMD
KCLM 211404Z 2114/2212 VRB03KT 2SM BR VCSH VV003
      TEMPO 2114/2117 1/4SM FG
     FM211700 25003KT 4SM -RA BR OVC035
     FM220300 27009KT P6SM -SHRA BKN025 OVC050=



000
FTUS46 KSEW 211300 AAA
TAFHQM
TAF AMD
KHQM 211304Z 2113/2212 08011KT 5SM -RA BR OVC015
      TEMPO 2113/2117 3SM -RA BR
     FM211700 13014G24KT 3SM -RA BR OVC015
     FM220000 22008G18KT P6SM -SHRA BKN015 OVC035=



000
FTUS46 KSEW 211300 AAB
TAFBLI
TAF AMD
KBLI 211303Z 2113/2212 15013G22KT P6SM VCSH BKN030 OVC070
      TEMPO 2113/2115 -RA
     FM211500 15012G23KT P6SM -RA OVC025
     FM212300 15016G26KT 4SM -RA BR OVC015
     FM220400 16013G20KT P6SM -SHRA BKN025 OVC050=



000
FTUS46 KSEW 211200 AAA
TAFCLM
TAF AMD
KCLM 211232Z 2113/2212 VRB03KT P6SM VCSH SCT003 OVC060
      TEMPO 2113/2117 -RA BKN003 OVC060
     FM211700 25003KT 4SM -RA BR OVC035
     FM220300 27009KT P6SM -SHRA BKN025 OVC050=



000
FTUS46 KSEW 211200 AAA
TAFBLI
TAF AMD
KBLI 211232Z 2113/2212 15013KT P6SM VCSH BKN030 OVC070
      TEMPO 2113/2115 -RA
     FM211500 15012G23KT P6SM -RA OVC025
     FM212300 15016G26KT 4SM -RA BR OVC015
     FM220400 16013G20KT P6SM -SHRA BKN025 OVC050=



000
FTUS46 KSEW 211100
TAFHQM
TAF
KHQM 211120Z 2112/2212 06007KT P6SM OVC020
     FM211300 10011KT 5SM -RA BR OVC015
     FM211700 13014G24KT 3SM -RA BR OVC015
     FM220000 22008G18KT P6SM -SHRA BKN015 OVC035=



000
FTUS46 KSEW 211100
TAFBFI
TAF
KBFI 211120Z 2112/2212 13004KT P6SM VCSH BKN060 OVC080
     FM211600 15007KT P6SM -RA OVC045
     FM212000 15008KT 5SM -RA BR OVC030
     FM220400 17011G21KT P6SM -SHRA BKN030 OVC050=



000
FTUS46 KSEW 211100
TAFCLM
TAF
KCLM 211120Z 2112/2212 00000KT P6SM VCSH OVC070
     FM211300 16002KT P6SM -RA OVC050
     FM211700 25003KT 4SM -RA BR OVC035
     FM220300 27009KT P6SM -SHRA BKN025 OVC050=



000
FTUS46 KSEW 211100
TAFPAE
TAF
KPAE 211120Z 2112/2212 15008KT P6SM VCSH SCT035 BKN050 OVC080
     FM211600 16015G22KT P6SM -RA OVC040
     FM211900 16015G24KT 4SM -RA BR OVC020
     FM220400 18014G21KT P6SM -SHRA OVC025=



000
FTUS46 KSEW 211100
TAFSEA
TAF
KSEA 211120Z 2112/2218 15005KT P6SM VCSH SCT045 OVC060
     FM211600 16009KT P6SM -RA OVC040
     FM211900 16011KT 4SM -RA BR OVC025
     FM220400 21013G23KT P6SM -SHRA BKN025 OVC045=



000
FTUS46 KSEW 211100
TAFBLI
TAF
KBLI 211120Z 2112/2212 15013KT P6SM VCSH SCT026 BKN090
     FM211500 15012G23KT P6SM -RA OVC025
     FM212300 15016G26KT 4SM -RA BR OVC015
     FM220400 16013G20KT P6SM -SHRA BKN025 OVC050=



000
FTUS46 KSEW 211100
TAFOLM
TAF
KOLM 211120Z 2112/2212 24003KT P6SM VCSH OVC060
     FM211600 20008KT 4SM -RA BR OVC040
     FM211900 20009KT 2SM -RA BR OVC025
     FM220400 21009G16KT P6SM -SHRA BKN025 OVC040=



000
FTUS46 KSEW 211000 AAA
TAFOLM
TAF AMD
KOLM 211008Z 2110/2206 22008KT P6SM SCT070 BKN090
     FM211300 20005KT P6SM OVC025
     FM211700 20006KT 4SM -RA BR OVC020
     FM220200 20008KT 2SM -SHRA BR OVC007=



000
FTUS46 KSEW 210900 AAA
TAFSEA
TAF AMD
KSEA 210900Z 2109/2212 15004KT P6SM OVC040
     FM211700 16006KT P6SM -RA BKN025 OVC050
     FM220200 18012G22KT 4SM -SHRA BR OVC015=



000
FTUS46 KSEW 210500 RRA
TAFCLM
TAF
KCLM 210542Z 2106/2206 27003KT P6SM FEW060 BKN070
     FM211400 21003KT P6SM -RA OVC050
     FM212100 27006KT 4SM -SHRA BR OVC015=



000
FTUS46 KSEW 210500 RRA
TAFOLM
TAF
KOLM 210542Z 2106/2206 22003KT 4SM BR OVC060
     FM211000 19004KT 1/2SM FG OVC001
     FM211700 20006KT 2SM -RA BR BKN020 OVC050
     FM220200 20008KT 2SM -SHRA BR OVC007=



000
FTUS46 KSEW 210500 RRA
TAFHQM
TAF
KHQM 210542Z 2106/2206 06005KT 4SM BR BKN020 OVC027
     FM211500 13010KT P6SM -RA OVC015
     FM220000 15014G23KT 4SM -SHRA BR OVC015=



000
FTUS46 KSEW 210500 RRA
TAFPAE
TAF
KPAE 210542Z 2106/2206 15010KT P6SM BKN030 OVC050
     FM211700 16013KT P6SM -RA OVC015
     FM220200 16015G25KT 4SM -RA BR OVC007=



000
FTUS46 KSEW 210500 RRA
TAFBLI
TAF
KBLI 210542Z 2106/2206 16009G16KT P6SM OVC018
     FM211500 15010KT P6SM -RA OVC015
     FM212000 14016G23KT P6SM -RA OVC015=



000
FTUS46 KSEW 210500 RRA
TAFBFI
TAF
KBFI 210542Z 2106/2206 13003KT P6SM BKN060 OVC100
     FM211700 15006KT P6SM -RA BKN030 OVC050
     FM220200 15010G17KT 4SM -SHRA OVC030=



000
FTUS46 KSEW 210500 RRA
TAFSEA
TAF
KSEA 210542Z 2106/2212 14007KT P6SM OVC060
     FM211700 16006KT P6SM -RA BKN025 OVC050
     FM220200 18012G22KT 4SM -SHRA BR OVC015=



000
FTUS46 KSEW 210400 AAA
TAFSEA
TAF AMD
KSEA 210424Z 2104/2206 14004KT P6SM BKN050 OVC060
     FM211500 18007KT 6SM -RA BR OVC020=



000
FTUS46 KSEW 210400 AAA
TAFSEA
TAF AMD
KSEA 210424Z 2104/2206 14004KT P6SM BKN050 OVC060
     FM211500 18007KT 6SM -RA BR OVC020=



000
FTUS46 KSEW 202300 RRA
TAFPAE
TAF
KPAE 202349Z 2100/2124 16008KT P6SM VCSH BKN030 OVC045
      TEMPO 2100/2104 -SHRA BKN025 OVC045
     FM210400 15009KT P6SM BKN025 OVC040
     FM211500 16014KT 6SM -RA BR OVC020=



000
FTUS46 KSEW 202300 RRA
TAFCLM
TAF
KCLM 202349Z 2100/2124 VRB03KT P6SM BKN060 OVC080
     FM211200 VRB03KT P6SM -RA OVC050
     FM211800 VRB03KT 6SM -RA BR OVC025=



000
FTUS46 KSEW 202300 RRA
TAFHQM
TAF
KHQM 202349Z 2100/2124 06009KT 5SM BR SCT025 OVC040
      TEMPO 2100/2104 5SM -SHRA BR BKN025 OVC040
     FM210400 10008KT 6SM BR SCT030 OVC050
     FM211200 13014KT 4SM -RA BR OVC030
     FM211800 13015G25KT 3SM -RA BR OVC015=



000
FTUS46 KSEW 202300 RRA
TAFBLI
TAF
KBLI 202349Z 2100/2124 15005KT P6SM VCSH BKN020 OVC030
      TEMPO 2100/2104 -SHRA
     FM210400 16006KT P6SM BKN030 OVC045
     FM210700 16008KT P6SM OVC025
     FM211200 16012KT 6SM -RA BR OVC020
     FM211800 16015G25KT 6SM -RA BR OVC020=



000
FTUS46 KSEW 202300 RRA
TAFSEA
TAF
KSEA 202349Z 2100/2206 18005KT P6SM VCSH SCT025 OVC040
      TEMPO 2100/2104 -SHRA BKN025 OVC040
     FM210400 17006KT P6SM BKN025 OVC040
     FM211500 18007KT 6SM -RA BR OVC020=



000
FTUS46 KSEW 202300 RRA
TAFBFI
TAF
KBFI 202349Z 2100/2124 15006KT P6SM VCSH SCT030 OVC045
      TEMPO 2100/2104 -SHRA BKN030 OVC045
     FM210400 16006KT P6SM BKN030 OVC045
     FM211500 15007KT 6SM -RA BR OVC025=



000
FTUS46 KSEW 202300 RRA
TAFOLM
TAF
KOLM 202349Z 2100/2124 21005KT P6SM SCT030 OVC045
     FM210600 19003KT 6SM BR OVC045
     FM210800 19003KT 2SM BR BKN010 OVC045
     FM211400 20007KT 5SM -RA BR OVC040
     FM211800 19008KT 4SM -RA BR OVC020=



000
FTUS46 KSEW 202100 AAA
TAFSEA
TAF AMD
KSEA 202104Z 2021/2124 17005KT P6SM VCSH SCT025 BKN040
      TEMPO 2021/2024 BKN025 BKN040
     FM210000 16006KT P6SM VCSH SCT025 BKN040
      TEMPO 2100/2104 -SHRA BKN025 BKN040
     FM210400 17006KT P6SM BKN025 OVC045=



000
FTUS46 KSEW 201900 AAA
TAFOLM
TAF AMD
KOLM 201947Z 2020/2118 21003KT P6SM VCSH SCT025 BKN050
      TEMPO 2020/2022 4SM -SHRA BKN025 BKN050
     FM202200 19005KT P6SM VCSH SCT030 BKN050
      TEMPO 2022/2102 -SHRA BKN030 BKN050
     FM210200 VRB03KT P6SM BKN030 BKN050
     FM210800 19003KT 2SM BR BKN015=



000
FTUS46 KSEW 201700
TAFHQM
TAF
KHQM 201734Z 2018/2118 06009KT 6SM -SHRA SCT015 OVC045
      TEMPO 2018/2022 2SM -SHRA BR BKN015 OVC030
     FM202200 10006KT 6SM BR VCSH SCT030 BKN050
      TEMPO 2022/2102 BKN030 BKN050
     FM210300 10005KT P6SM BKN030 BKN050=



000
FTUS46 KSEW 201700
TAFCLM
TAF
KCLM 201734Z 2018/2118 VRB04KT P6SM VCSH BKN050
     FM210000 VRB03KT P6SM BKN050=



000
FTUS46 KSEW 201700
TAFOLM
TAF
KOLM 201734Z 2018/2118 21003KT P6SM VCSH SCT025 BKN050
      TEMPO 2018/2022 -SHRA BKN025 BKN050
     FM202200 19005KT P6SM VCSH SCT030 BKN050
      TEMPO 2022/2102 -SHRA BKN030 BKN050
     FM210200 VRB03KT P6SM BKN030 BKN050
     FM210800 19003KT 2SM BR BKN015=



000
FTUS46 KSEW 201700
TAFSEA
TAF
KSEA 201734Z 2018/2124 14007KT P6SM VCSH SCT030 BKN050
      TEMPO 2018/2022 BKN030 BKN050
     FM202200 16006KT P6SM VCSH SCT030 BKN050
      TEMPO 2022/2102 -SHRA BKN030 BKN050
     FM210200 17006KT P6SM BKN030 OVC050=



000
FTUS46 KSEW 201700
TAFBFI
TAF
KBFI 201734Z 2018/2118 15006KT P6SM VCSH SCT035 BKN050
      TEMPO 2018/2022 BKN035 BKN050
     FM202200 15006KT P6SM VCSH SCT035 BKN050
      TEMPO 2022/2102 -SHRA BKN035 BKN050
     FM210200 16006KT P6SM BKN035 OVC050=



000
FTUS46 KSEW 201700
TAFBLI
TAF
KBLI 201734Z 2018/2118 16009KT P6SM BKN015 BKN040
      TEMPO 2018/2020 SCT015 BKN040
     FM202000 16008KT P6SM VCSH SCT025 BKN045
      TEMPO 2020/2024 -SHRA BKN025 BKN045
     FM210000 16006KT P6SM BKN030 BKN050=



000
FTUS46 KSEW 201700
TAFPAE
TAF
KPAE 201734Z 2018/2118 16013KT P6SM VCSH SCT025 BKN050
      TEMPO 2018/2022 -SHRA BKN025 BKN050
     FM202200 17010KT P6SM VCSH SCT030 BKN050
      TEMPO 2022/2102 -SHRA BKN030 BKN050
     FM210200 16008KT P6SM BKN030 BKN050=



000
FTUS46 KSEW 201600 AAC
TAFBFI
TAF AMD
KBFI 201625Z 2016/2112 15005KT P6SM SCT020 BKN050
     FM201900 16005KT P6SM VCSH SCT030 BKN050
      TEMPO 2020/2024 -SHRA BKN030 BKN050=



000
FTUS46 KSEW 201600 AAB
TAFOLM
TAF AMD
KOLM 201608Z 2016/2112 21003KT P6SM VCSH SCT025 BKN050
      TEMPO 2016/2020 -SHRA BKN025 BKN050
     FM202000 19005KT P6SM VCSH SCT030 BKN050
      TEMPO 2020/2024 -SHRA BKN030 BKN050
     FM210700 19003KT 2SM BR BKN025 OVC050=



000
FTUS46 KSEW 201600 AAB
TAFCLM
TAF AMD
KCLM 201605Z 2016/2112 VRB03KT P6SM VCSH SCT015 BKN050
     FM201800 VRB03KT P6SM VCSH SCT030 BKN060=



000
FTUS46 KSEW 201600 AAB
TAFSEA
TAF AMD
KSEA 201601Z 2016/2118 13006KT P6SM VCSH SCT030 BKN050
      TEMPO 2016/2020 BKN030 BKN050
     FM202000 17006KT P6SM VCSH SCT030 BKN050
      TEMPO 2020/2024 -SHRA BKN030 BKN050=



000
FTUS46 KSEW 201400 AAB
TAFPAE
TAF AMD
KPAE 201440Z 2015/2112 17013KT P6SM SCT020 SCT040
      TEMPO 2015/2017 BKN020 BKN040
     FM201700 17013KT P6SM SCT020 BKN040
     FM202100 16009KT P6SM VCSH BKN025 OVC050=



000
FTUS46 KSEW 201400 AAB
TAFBLI
TAF AMD
KBLI 201401Z 2014/2112 17009KT P6SM VCSH OVC022
      TEMPO 2014/2018 4SM -SHRA BR
     FM202200 16006KT P6SM VCSH BKN025 OVC050=



000
FTUS46 KSEW 201400 AAB
TAFHQM
TAF AMD
KHQM 201401Z 2014/2112 07007KT P6SM SCT015 SCT030 BKN060
      TEMPO 2016/2020 4SM -RA BR BKN015 OVC030
     FM202000 10006KT P6SM OVC015=



000
FTUS46 KSEW 201400 AAB
TAFBFI
TAF AMD
KBFI 201400Z 2014/2112 15005KT P6SM SCT028 OVC040
      TEMPO 2014/2017 -SHRA BKN028 OVC040
     FM201900 16004KT P6SM VCSH BKN030 OVC050=



000
FTUS46 KSEW 201300 AAA
TAFOLM
TAF AMD
KOLM 201320Z 2013/2112 21008KT 6SM BR VCSH BKN010 OVC025
     FM201800 19005KT P6SM VCSH BKN020 OVC040
     FM210400 19003KT 2SM BR BKN025 OVC050=



000
FTUS46 KSEW 201300 AAA
TAFCLM
TAF AMD
KCLM 201318Z 2013/2112 23005KT P6SM VCSH SCT045 OVC070
     FM201800 24003KT P6SM -RA BKN025 OVC050
     FM202100 24002KT P6SM VCSH BKN025 OVC050=



000
FTUS46 KSEW 201300 AAA
TAFPAE
TAF AMD
KPAE 201317Z 2013/2112 15013KT P6SM FEW005 SCT015 OVC022
      TEMPO 2013/2015 FEW005 BKN015 OVC022
     FM201500 17010KT P6SM BKN022 OVC040
     FM202100 16009KT P6SM VCSH BKN025 OVC050=



000
FTUS46 KSEW 201300 AAA
TAFBFI
TAF AMD
KBFI 201315Z 2013/2112 15005KT P6SM BKN028 OVC040
      TEMPO 2014/2017 -SHRA
     FM201900 16004KT P6SM VCSH BKN030 OVC050=



000
FTUS46 KSEW 201300 AAA
TAFSEA
TAF AMD
KSEA 201314Z 2013/2118 17006KT P6SM BKN025 OVC040
      TEMPO 2014/2017 -SHRA
     FM201900 17005KT P6SM VCSH BKN025 OVC045=



000
FTUS46 KSEW 201300 AAA
TAFBLI
TAF AMD
KBLI 201313Z 2013/2112 17009KT P6SM VCSH OVC030
      TEMPO 2013/2016 -SHRA
     FM202200 16006KT P6SM VCSH BKN025 OVC050=



000
FTUS46 KSEW 201300 AAA
TAFHQM
TAF AMD
KHQM 201313Z 2013/2112 06007KT P6SM BKN012 OVC030
      TEMPO 2016/2020 4SM -RA
     FM202000 10006KT P6SM OVC015=



000
FTUS46 KSEW 201100
TAFBLI
TAF
KBLI 201125Z 2012/2112 12009KT P6SM -RA FEW035 OVC050
     FM201300 16012G18KT P6SM -RA OVC030
     FM202200 16006KT P6SM VCSH BKN025 OVC050=



000
FTUS46 KSEW 201100
TAFHQM
TAF
KHQM 201125Z 2012/2112 06007KT P6SM VCSH OVC006
      TEMPO 2012/2016 4SM -RA OVC007
     FM202000 10006KT P6SM OVC015=



000
FTUS46 KSEW 201100
TAFPAE
TAF
KPAE 201125Z 2012/2112 16009KT P6SM -RA OVC024
     FM202100 16009KT P6SM VCSH BKN025 OVC050=



000
FTUS46 KSEW 201100
TAFCLM
TAF
KCLM 201125Z 2012/2112 24005KT P6SM OVC060
     FM201300 23004KT P6SM -RA OVC050
     FM201500 24003KT P6SM -RA BKN025 OVC050
     FM202100 24002KT P6SM VCSH BKN025 OVC050=



000
FTUS46 KSEW 201100
TAFBFI
TAF
KBFI 201125Z 2012/2112 13003KT P6SM -RA OVC028
     FM201900 16004KT P6SM VCSH BKN030 OVC050=



000
FTUS46 KSEW 201100
TAFOLM
TAF
KOLM 201125Z 2012/2112 21010KT P6SM VCSH OVC024
     FM210400 19003KT 2SM BR BKN025 OVC050=



000
FTUS46 KSEW 201100
TAFSEA
TAF
KSEA 201125Z 2012/2118 15006KT P6SM -RA OVC023
     FM201900 17005KT P6SM VCSH BKN025 OVC045=



000
FTUS46 KSEW 201000 AAB
TAFHQM
TAF AMD
KHQM 201002Z 2010/2106 06005KT 4SM -RA BR OVC006
     FM201800 12006KT P6SM VCSH OVC025
     FM210000 12005KT P6SM BKN025 OVC050=



000
FTUS46 KSEW 201000 AAA
TAFBLI
TAF AMD
KBLI 201002Z 2010/2106 15012G16KT P6SM -RA BKN070 OVC090
     FM202000 15005KT P6SM VCSH OVC025
     FM210300 14003KT P6SM BKN025 OVC050=



000
FTUS46 KSEW 201000 AAA
TAFPAE
TAF AMD
KPAE 201002Z 2010/2106 17011G17KT P6SM -RA OVC030
     FM201800 17008KT P6SM VCSH OVC020
     FM210300 17007KT P6SM BKN020 OVC040=



000
FTUS46 KSEW 201000 AAB
TAFSEA
TAF AMD
KSEA 201001Z 2010/2112 16005KT P6SM -RA OVC028
     FM201600 18004KT P6SM VCSH OVC025
     FM210300 18005KT P6SM BKN025 OVC045=



000
FTUS46 KSEW 201000 AAA
TAFBFI
TAF AMD
KBFI 201001Z 2010/2106 13003KT P6SM -RA BKN030 OVC035
     FM201700 15004KT P6SM VCSH OVC030
     FM210300 18003KT P6SM BKN030 OVC050=



000
FTUS46 KSEW 200900 AAA
TAFOLM
TAF AMD
KOLM 200902Z 2009/2106 23003KT P6SM OVC028
     FM201800 20004KT 3SM BR VCSH OVC015
     FM210100 19003KT 4SM BR BKN015 OVC050=



000
FTUS46 KSEW 200900 AAA
TAFSEA
TAF AMD
KSEA 200901Z 2009/2112 20003KT P6SM -RA OVC040
     FM201600 18004KT P6SM VCSH OVC025
     FM210300 18005KT P6SM BKN025 OVC045=



000
FTUS46 KSEW 200900 AAA
TAFHQM
TAF AMD
KHQM 200901Z 2009/2106 06008KT 2SM -RA BR OVC008
     FM201800 12006KT P6SM VCSH OVC025
     FM210000 12005KT P6SM BKN025 OVC050=



000
FTUS46 KSEW 200500
TAFBFI
TAF
KBFI 200525Z 2006/2106 14004KT P6SM OVC100
      TEMPO 2006/2009 P6SM -RA BKN050 OVC100
     FM200900 15005KT P6SM -RA OVC050
     FM201700 15004KT P6SM VCSH OVC030
     FM210300 18003KT P6SM BKN030 OVC050=



000
FTUS46 KSEW 200500
TAFHQM
TAF
KHQM 200525Z 2006/2106 09010KT P6SM -RA OVC100
     FM200800 14012KT P6SM -RA OVC050
     FM201800 12006KT P6SM VCSH OVC025
     FM210000 12005KT P6SM BKN025 OVC050=



000
FTUS46 KSEW 200500
TAFOLM
TAF
KOLM 200525Z 2006/2106 19004KT 5SM BR OVC100
      TEMPO 2006/2008 5SM -RA BKN050 OVC100
     FM200800 20006KT 4SM -RA BR OVC050
     FM201800 20004KT 3SM BR VCSH OVC015
     FM210100 19003KT 4SM BR BKN015 OVC050=



000
FTUS46 KSEW 200500
TAFPAE
TAF
KPAE 200525Z 2006/2106 16005KT P6SM OVC100
      TEMPO 2006/2010 P6SM -RA BKN050 OVC100
     FM201000 16007KT P6SM -RA OVC040
     FM201800 17008KT P6SM VCSH OVC020
     FM210300 17007KT P6SM BKN020 OVC040=



000
FTUS46 KSEW 200500
TAFCLM
TAF
KCLM 200525Z 2006/2106 19003KT P6SM OVC100
      TEMPO 2006/2009 P6SM -RA BKN050 OVC100
     FM200900 19002KT P6SM -RA OVC050
     FM202000 02002KT P6SM VCSH OVC025
     FM210300 27005KT P6SM BKN025 OVC050=



000
FTUS46 KSEW 200500
TAFBLI
TAF
KBLI 200525Z 2006/2106 13004KT P6SM OVC100
      TEMPO 2006/2010 P6SM -RA BKN050 OVC100
     FM201000 14006KT P6SM -RA OVC050
     FM202000 15005KT P6SM VCSH OVC025
     FM210300 14003KT P6SM BKN025 OVC050=



000
FTUS46 KSEW 200500
TAFSEA
TAF
KSEA 200525Z 2006/2112 14005KT P6SM OVC100
      TEMPO 2006/2009 P6SM -RA BKN045 OVC100
     FM200900 15005KT P6SM -RA OVC045
     FM201600 18004KT P6SM VCSH OVC025
     FM210300 18005KT P6SM BKN025 OVC045=



000
FTUS46 KSEW 200300 AAA
TAFSEA
TAF AMD
KSEA 200351Z 2004/2106 00000KT P6SM BKN120 OVC200
     FM200800 18007KT P6SM -RA OVC040
     FM200900 21008KT P6SM -RA OVC020
     FM201200 20010KT P6SM -RA BKN015 OVC025
     FM201800 20010KT P6SM -SHRA BKN035=



000
FTUS46 KSEW 200300 AAA
TAFSEA
TAF AMD
KSEA 200351Z 2004/2106 00000KT P6SM BKN120 OVC200
     FM200800 18007KT P6SM -RA OVC040
     FM200900 21008KT P6SM -RA OVC020
     FM201200 20010KT P6SM -RA BKN015 OVC025
     FM201800 20010KT P6SM -SHRA BKN035=



000
FTUS46 KSEW 192300 RRA
TAFBLI
TAF
KBLI 192342Z 2000/2024 02005KT P6SM BKN120 OVC160
     FM200300 02005KT P6SM BKN080 OVC120
     FM200800 15007KT P6SM -RA BKN040 OVC060
     FM201200 16012KT P6SM -RA OVC020
     FM202100 18010KT P6SM -SHRA BKN040=



000
FTUS46 KSEW 192300 RRA
TAFBFI
TAF
KBFI 192342Z 2000/2024 30004KT P6SM BKN120 OVC160
     FM200200 15005KT P6SM BKN100 OVC150
     FM200600 16006KT P6SM -RA OVC045
     FM200900 18007KT P6SM -RA OVC025
     FM201200 18008KT P6SM -RA BKN020 OVC030
     FM201800 18008KT P6SM -SHRA BKN040=



000
FTUS46 KSEW 192300 RRA
TAFCLM
TAF
KCLM 192342Z 2000/2024 09004KT P6SM BKN100 OVC160
     FM200800 VRB03KT P6SM -RA BKN050 OVC080
     FM201200 VRB03KT P6SM -RA OVC045
     FM201800 VRB03KT P6SM VCSH BKN050=



000
FTUS46 KSEW 192300 RRA
TAFOLM
TAF
KOLM 192342Z 2000/2024 VRB03KT P6SM BKN100 OVC160
     FM200300 12005KT P6SM BKN050 OVC100
     FM200500 18004KT P6SM -RA OVC040
     FM200800 18003KT 4SM -RA BR OVC012
     FM201800 21005KT P6SM -SHRA BKN035=



000
FTUS46 KSEW 192300 RRA
TAFHQM
TAF
KHQM 192342Z 2000/2024 08012KT P6SM BKN120 OVC160
     FM200300 08012KT P6SM BKN050 OVC080
     FM200400 12012KT P6SM -RA OVC030
     FM200800 14010KT 4SM -RA OVC010
     FM201800 12007KT 6SM -SHRA BKN020=



000
FTUS46 KSEW 192300 RRA
TAFSEA
TAF
KSEA 192342Z 2000/2106 32004KT P6SM BKN120 OVC160
     FM200200 18006KT P6SM BKN100 OVC150
     FM200600 18007KT P6SM -RA OVC040
     FM200900 21008KT P6SM -RA OVC020
     FM201200 20010KT P6SM -RA BKN015 OVC025
     FM201800 20010KT P6SM -SHRA BKN035=



000
FTUS46 KSEW 192300 RRA
TAFPAE
TAF
KPAE 192342Z 2000/2024 03004KT P6SM BKN120 OVC160
     FM200200 12007KT P6SM OVC100
     FM200700 18006KT P6SM -RA OVC040
     FM201000 17010KT P6SM -RA OVC015
     FM201800 18010KT P6SM -SHRA BKN030=



000
FTUS46 KSEW 192100 AAA
TAFSEA
TAF AMD
KSEA 192114Z 1921/2024 02005KT P6SM BKN120 OVC160
     FM200200 13007KT P6SM BKN100 OVC150
     FM200700 14008KT P6SM -RA OVC040
     FM201200 18008KT P6SM -RA OVC020=



000
FTUS46 KSEW 191700
TAFHQM
TAF
KHQM 191738Z 1918/2018 08014KT P6SM BKN120 OVC160
     FM192200 08014KT P6SM OVC100
     FM200400 10012KT P6SM -RA OVC030
     FM200800 16010KT P6SM -RA OVC015=



000
FTUS46 KSEW 191700
TAFPAE
TAF
KPAE 191738Z 1918/2018 VRB03KT P6SM BKN120 OVC160
     FM200000 14005KT P6SM OVC100
     FM200800 15008KT P6SM -RA OVC040
     FM201200 17012KT P6SM -RA OVC020=



000
FTUS46 KSEW 191700
TAFSEA
TAF
KSEA 191738Z 1918/2024 02005KT P6SM BKN120 OVC160
     FM200200 13007KT P6SM OVC100
     FM200700 14008KT P6SM -RA OVC040
     FM201200 18008KT P6SM -RA OVC020=



000
FTUS46 KSEW 191700
TAFBLI
TAF
KBLI 191738Z 1918/2018 VRB03KT P6SM BKN120 OVC160
     FM200300 14005KT P6SM BKN080 OVC120
     FM201000 14009KT P6SM -RA OVC040
     FM201400 16008KT P6SM -RA OVC025=



000
FTUS46 KSEW 191700
TAFOLM
TAF
KOLM 191738Z 1918/2018 VRB03KT P6SM BKN120 OVC160
     FM192200 12005KT P6SM OVC100
     FM200500 18004KT P6SM -RA OVC040
     FM201000 18003KT 4SM -RA BR OVC020=



000
FTUS46 KSEW 191700
TAFCLM
TAF
KCLM 191738Z 1918/2018 09004KT P6SM BKN100 OVC160
     FM200600 VRB03KT P6SM OVC060
     FM201100 00000KT P6SM -RA OVC045=



000
FTUS46 KSEW 191700
TAFBFI
TAF
KBFI 191738Z 1918/2018 VRB03KT P6SM BKN120 OVC160
     FM200000 15005KT P6SM OVC100
     FM200700 15005KT P6SM -RA OVC045
     FM201200 16007KT P6SM -RA OVC025=



000
FTUS46 KSEW 191400 AAA
TAFSEA
TAF AMD
KSEA 191400Z 1914/2018 02005KT P6SM BKN120
     FM200500 14006KT P6SM VCSH OVC045
     FM201100 16006KT P6SM -RA OVC025=



000
FTUS46 KSEW 191100
TAFSEA
TAF
KSEA 191125Z 1912/2018 02006KT P6SM OVC110
     FM200500 14006KT P6SM VCSH OVC045
     FM201100 16006KT P6SM -RA OVC025=



000
FTUS46 KSEW 191100
TAFBFI
TAF
KBFI 191125Z 1912/2012 00000KT P6SM OVC110
     FM200500 15005KT P6SM VCSH OVC050
     FM201100 16006KT P6SM -RA OVC030=



000
FTUS46 KSEW 191100
TAFOLM
TAF
KOLM 191125Z 1912/2012 00000KT P6SM OVC110
      TEMPO 1912/1916 4SM BR SCT002
     FM200100 18003KT P6SM VCSH OVC050
     FM200800 18004KT 4SM -RA BR OVC025=



000
FTUS46 KSEW 191100
TAFCLM
TAF
KCLM 191125Z 1912/2012 00000KT P6SM OVC100
     FM200400 18003KT P6SM VCSH OVC050
     FM201100 22003KT P6SM -RA OVC040=



000
FTUS46 KSEW 191100
TAFHQM
TAF
KHQM 191125Z 1912/2012 07011KT P6SM OVC120
     FM200100 10010KT P6SM VCSH OVC050
     FM200500 11014KT P6SM -RA OVC025=



000
FTUS46 KSEW 191100
TAFBLI
TAF
KBLI 191125Z 1912/2012 00000KT P6SM OVC120
     FM200700 14007KT P6SM VCSH OVC050
     FM201100 15008KT P6SM -RA OVC030=



000
FTUS46 KSEW 191100
TAFPAE
TAF
KPAE 191125Z 1912/2012 00000KT P6SM OVC120
     FM200600 15008KT P6SM VCSH OVC040
     FM201100 17011KT P6SM -RA OVC020=



000
FTUS46 KSEW 190900 AAA
TAFSEA
TAF AMD
KSEA 190906Z 1909/2012 00000KT P6SM BKN110 OVC200
     FM191100 VRB03KT P6SM BKN090 OVC200
     FM200400 15006KT P6SM OVC050=



000
FTUS46 KSEW 190500
TAFOLM
TAF
KOLM 190532Z 1906/2006 00000KT P6SM SCT120 OVC200
     FM191200 00000KT 1/2SM FG OVC001
     FM191800 07003KT 4SM BR BKN090 OVC200
     FM200100 18004KT P6SM VCSH OVC050=



000
FTUS46 KSEW 190500
TAFPAE
TAF
KPAE 190532Z 1906/2006 11004KT P6SM OVC180
     FM191200 15005KT P6SM BKN090 OVC200
     FM200500 16008KT P6SM OVC050=



000
FTUS46 KSEW 190500
TAFSEA
TAF
KSEA 190532Z 1906/2012 00000KT P6SM OVC180
     FM191100 VRB03KT P6SM BKN090 OVC200
     FM200400 15006KT P6SM OVC050=



000
FTUS46 KSEW 190500
TAFBFI
TAF
KBFI 190532Z 1906/2006 00000KT 5SM BR OVC180
     FM191100 00000KT 4SM BR BKN090 OVC200
     FM200500 14004KT P6SM OVC050=



000
FTUS46 KSEW 190500
TAFHQM
TAF
KHQM 190532Z 1906/2006 07008KT P6SM SCT110 OVC200
     FM191100 07006KT P6SM BKN090 OVC200
     FM200000 10009KT P6SM VCSH OVC050
     FM200500 12011KT P6SM -RA OVC040=



000
FTUS46 KSEW 190500
TAFBLI
TAF
KBLI 190532Z 1906/2006 00000KT P6SM OVC200
     FM191300 00000KT P6SM BKN090 OVC200
     FM200000 VRB03KT P6SM OVC090=



000
FTUS46 KSEW 190500
TAFCLM
TAF
KCLM 190532Z 1906/2006 16003KT P6SM OVC200
     FM191400 16002KT P6SM BKN090 OVC200
     FM200400 19003KT P6SM VCSH OVC050=



000
FTUS46 KSEW 190300 AAA
TAFSEA
TAF AMD
KSEA 190318Z 1903/2006 00000KT P6SM BKN200
     FM191200 09004KT P6SM BKN100 OVC150
     FM200300 15006KT P6SM BKN050 OVC100=



000
FTUS46 KSEW 182300
TAFHQM
TAF
KHQM 182332Z 1900/1924 08008KT P6SM OVC200
     FM191200 06007KT P6SM BKN100 OVC150
     FM192000 08012KT P6SM BKN070 OVC100=



000
FTUS46 KSEW 182300
TAFOLM
TAF
KOLM 182332Z 1900/1924 00000KT P6SM OVC200
     FM191000 00000KT P6SM MIFG OVC200
     FM191600 VRB03KT P6SM BKN100 OVC150=



000
FTUS46 KSEW 182300
TAFPAE
TAF
KPAE 182332Z 1900/1924 VRB03KT P6SM OVC200
     FM191200 13004KT P6SM BKN100 OVC150=



000
FTUS46 KSEW 182300
TAFBFI
TAF
KBFI 182332Z 1900/1924 00000KT P6SM OVC200
     FM191200 14003KT P6SM BKN100 OVC150=



000
FTUS46 KSEW 182300
TAFSEA
TAF
KSEA 182332Z 1900/2006 11004KT P6SM OVC200
     FM191200 09004KT P6SM BKN100 OVC150
     FM200300 15006KT P6SM BKN050 OVC100=



000
FTUS46 KSEW 182300
TAFBLI
TAF
KBLI 182332Z 1900/1924 00000KT P6SM OVC200
     FM191200 VRB03KT P6SM BKN100 OVC150=



000
FTUS46 KSEW 182300
TAFCLM
TAF
KCLM 182332Z 1900/1924 VRB03KT P6SM BKN120 OVC200
     FM192200 VRB03KT P6SM OVC080=



000
FTUS46 KSEW 182100 AAA
TAFSEA
TAF AMD
KSEA 182150Z 1822/1924 VRB03KT P6SM OVC200
     FM190000 06004KT P6SM BKN150
     FM190600 08005KT P6SM BKN100 OVC150
     FM191200 06006KT P6SM BKN050 OVC080=



000
FTUS46 KSEW 182100 AAA
TAFSEA
TAF AMD
KSEA 182150Z 1822/1924 VRB03KT P6SM OVC200
     FM190000 06004KT P6SM BKN150
     FM190600 08005KT P6SM BKN100 OVC150
     FM191200 06006KT P6SM BKN050 OVC080=



    US Dept of Commerce
    National Oceanic and Atmospheric Administration
    National Weather Service
    1325 East West Highway
    Silver Spring, MD 20910
    Page Author: NWS Internet Services Team
Disclaimer
Information Quality
Credits
Glossary
Privacy Policy
Freedom of Information Act (FOIA)
About Us
Career Opportunities